Del Bajio, Mexico

10:32 PM CDT on October 24, 2014 (GMT -0500)
De Guanajuato International | Change Station
CLOSE
Current Station
Airport
Location: Del Bajio,
Elevation: 5968 ft
Nearby Weather Stations

Elev 5968 ft 20.99 °N, 101.48 °W | Updated 50 minutes ago

Clear
Clear
64 °F
Feels Like 64 °F
N
7
Wind Variable Wind from NNE

Today
High -- | Low -- °F
--% Chance of Precip.
Yesterday
High -- | Low -- °F
Precip. -- in
7:44 AM 7:14 PM
New Moon, 2% visible
Pressure 29.96 in
Visibility 8.0 miles
Clouds Clear
Dew Point 48 °F
Humidity 56%
Rainfall 0.00 in
Snow Depth Not available.
UV 0 out of 12
Pollen Not available.
Air Quality Not available.
Flu Activity Not available.
METAR MMLO 250242Z 03006KT 8SM SKC 18/09 A3035 RMK SLP145 52019 919 SC

More Conditions Fewer Conditions

Pressure 29.96 in
Visibility 8.0 miles
Clouds Clear
Dew Point 48 °F
Humidity 56%
Rainfall 0.00 in
Snow Depth Not available.
UV 0 out of 12
Pollen Not available.
Air Quality Not available.
Flu Activity Not available.
METAR MMLO 250242Z 03006KT 8SM SKC 18/09 A3035 RMK SLP145 52019 919 SC

More Conditions Fewer Conditions

10-Day Weather Forecast

Almanac

Astronomy

Oct. 24, 2014 Rise Set
Actual Time 7:44 AM CDT 7:14 PM CDT
Civil Twilight 7:22 AM CDT 7:37 PM CDT
Nautical Twilight 6:56 AM CDT 8:03 PM CDT
Astronomical Twilight 6:30 AM CDT 8:29 PM CDT
Moon 8:22 AM CDT (10/24) 8:02 PM CDT (10/24)
Length of Visible Light 12h 15m
Length of Day
11h 30m
Tomorrow will be 1m 6s shorter.
New Moon, 2% of the Moon is Illuminated
Today
New Moon
Oct 30
First Quarter
Nov 6
Full
Nov 14
Last Quarter
Nov 22
New

Today's Extremes

Country Highs Country Lows

Community

WunderPhotos

Upload Photos

1,764,771 photos uploaded!

Nearby

Snow Depth

Not available.

Earthquake Activity

City Distance Mag. Time & Date
No recent earthquake activity has been reported nearby.
Minimum magnitude displayed is 2.5.

Coastal Water Temperatures

Place Temperature
No Stations Reporting

Nearby Weather Stations